sensor_id;sensor_type;location;lat;lon;timestamp;P1;durP1;ratioP1;P2;durP2;ratioP2
23119;SDS011;11729;50.836;4.330;2023-12-07T00:01:22;73.15;;;30.15;;
23119;SDS011;11729;50.836;4.330;2023-12-07T00:03:47;69.20;;;30.38;;
23119;SDS011;11729;50.836;4.330;2023-12-07T00:06:13;72.47;;;30.90;;
23119;SDS011;11729;50.836;4.330;2023-12-07T00:08:39;66.82;;;30.13;;
23119;SDS011;11729;50.836;4.330;2023-12-07T00:11:04;74.50;;;31.95;;
23119;SDS011;11729;50.836;4.330;2023-12-07T00:13:31;73.38;;;31.88;;
23119;SDS011;11729;50.836;4.330;2023-12-07T00:15:56;62.30;;;30.25;;
23119;SDS011;11729;50.836;4.330;2023-12-07T00:18:22;74.07;;;30.92;;
23119;SDS011;11729;50.836;4.330;2023-12-07T00:20:48;71.10;;;30.73;;
23119;SDS011;11729;50.836;4.330;2023-12-07T00:23:13;64.30;;;29.98;;
23119;SDS011;11729;50.836;4.330;2023-12-07T00:25:39;68.75;;;30.00;;
23119;SDS011;11729;50.836;4.330;2023-12-07T00:28:05;61.05;;;29.35;;
23119;SDS011;11729;50.836;4.330;2023-12-07T00:30:30;79.72;;;32.30;;
23119;SDS011;11729;50.836;4.330;2023-12-07T00:32:57;68.97;;;30.70;;
23119;SDS011;11729;50.836;4.330;2023-12-07T00:35:22;62.50;;;29.80;;
23119;SDS011;11729;50.836;4.330;2023-12-07T00:37:49;67.07;;;31.20;;
23119;SDS011;11729;50.836;4.330;2023-12-07T00:40:15;70.50;;;31.20;;
23119;SDS011;11729;50.836;4.330;2023-12-07T00:42:41;59.35;;;29.15;;
23119;SDS011;11729;50.836;4.330;2023-12-07T00:45:07;65.40;;;29.67;;
23119;SDS011;11729;50.836;4.330;2023-12-07T00:47:33;60.42;;;28.83;;
23119;SDS011;11729;50.836;4.330;2023-12-07T00:49:58;56.58;;;28.52;;
23119;SDS011;11729;50.836;4.330;2023-12-07T00:52:24;53.45;;;25.63;;
23119;SDS011;11729;50.836;4.330;2023-12-07T00:54:50;52.92;;;26.60;;
23119;SDS011;11729;50.836;4.330;2023-12-07T00:57:15;51.47;;;27.02;;
23119;SDS011;11729;50.836;4.330;2023-12-07T00:59:41;54.60;;;27.30;;
23119;SDS011;11729;50.836;4.330;2023-12-07T01:02:07;58.05;;;27.15;;
23119;SDS011;11729;50.836;4.330;2023-12-07T01:04:32;60.05;;;28.75;;
23119;SDS011;11729;50.836;4.330;2023-12-07T01:06:59;59.55;;;30.52;;
23119;SDS011;11729;50.836;4.330;2023-12-07T01:09:25;56.25;;;29.35;;
23119;SDS011;11729;50.836;4.330;2023-12-07T01:11:51;55.08;;;28.33;;
23119;SDS011;11729;50.836;4.330;2023-12-07T01:14:17;54.88;;;28.40;;
23119;SDS011;11729;50.836;4.330;2023-12-07T01:16:43;52.33;;;28.35;;
23119;SDS011;11729;50.836;4.330;2023-12-07T01:19:09;56.15;;;28.95;;
23119;SDS011;11729;50.836;4.330;2023-12-07T01:21:35;46.63;;;27.35;;
23119;SDS011;11729;50.836;4.330;2023-12-07T01:24:01;55.95;;;27.52;;
23119;SDS011;11729;50.836;4.330;2023-12-07T01:26:27;56.60;;;28.05;;
23119;SDS011;11729;50.836;4.330;2023-12-07T01:28:53;49.17;;;27.67;;
23119;SDS011;11729;50.836;4.330;2023-12-07T01:31:18;53.25;;;27.60;;
23119;SDS011;11729;50.836;4.330;2023-12-07T01:33:44;46.20;;;26.13;;
23119;SDS011;11729;50.836;4.330;2023-12-07T01:36:10;53.65;;;28.10;;
23119;SDS011;11729;50.836;4.330;2023-12-07T01:38:36;54.58;;;28.80;;
23119;SDS011;11729;50.836;4.330;2023-12-07T01:41:02;56.60;;;28.08;;
23119;SDS011;11729;50.836;4.330;2023-12-07T01:43:27;51.85;;;27.67;;
23119;SDS011;11729;50.836;4.330;2023-12-07T01:45:54;56.55;;;27.75;;
23119;SDS011;11729;50.836;4.330;2023-12-07T01:48:22;52.03;;;27.08;;
23119;SDS011;11729;50.836;4.330;2023-12-07T01:50:49;48.97;;;26.02;;
23119;SDS011;11729;50.836;4.330;2023-12-07T01:53:15;48.25;;;26.55;;
23119;SDS011;11729;50.836;4.330;2023-12-07T01:55:41;49.20;;;25.92;;
23119;SDS011;11729;50.836;4.330;2023-12-07T01:58:07;50.42;;;27.02;;
23119;SDS011;11729;50.836;4.330;2023-12-07T02:00:33;45.63;;;25.65;;
23119;SDS011;11729;50.836;4.330;2023-12-07T02:03:00;43.20;;;24.58;;
23119;SDS011;11729;50.836;4.330;2023-12-07T02:05:29;45.58;;;25.30;;
23119;SDS011;11729;50.836;4.330;2023-12-07T02:07:56;46.00;;;26.25;;
23119;SDS011;11729;50.836;4.330;2023-12-07T02:10:22;47.10;;;26.42;;
23119;SDS011;11729;50.836;4.330;2023-12-07T02:12:49;46.80;;;25.17;;
23119;SDS011;11729;50.836;4.330;2023-12-07T02:15:15;40.35;;;24.65;;
23119;SDS011;11729;50.836;4.330;2023-12-07T02:20:44;45.50;;;25.13;;
23119;SDS011;11729;50.836;4.330;2023-12-07T02:23:17;40.83;;;23.65;;
23119;SDS011;11729;50.836;4.330;2023-12-07T02:25:48;42.10;;;24.30;;
23119;SDS011;11729;50.836;4.330;2023-12-07T02:28:16;42.75;;;24.60;;
23119;SDS011;11729;50.836;4.330;2023-12-07T02:30:43;39.83;;;23.50;;
23119;SDS011;11729;50.836;4.330;2023-12-07T02:33:09;37.53;;;22.48;;
23119;SDS011;11729;50.836;4.330;2023-12-07T02:35:36;44.90;;;23.70;;
23119;SDS011;11729;50.836;4.330;2023-12-07T02:38:03;39.78;;;22.90;;
23119;SDS011;11729;50.836;4.330;2023-12-07T02:40:30;43.87;;;22.97;;
23119;SDS011;11729;50.836;4.330;2023-12-07T02:42:57;38.50;;;22.75;;
23119;SDS011;11729;50.836;4.330;2023-12-07T02:45:24;37.28;;;21.60;;
23119;SDS011;11729;50.836;4.330;2023-12-07T02:47:51;36.92;;;22.20;;
23119;SDS011;11729;50.836;4.330;2023-12-07T02:50:17;46.08;;;22.55;;
23119;SDS011;11729;50.836;4.330;2023-12-07T02:52:43;37.70;;;21.58;;
23119;SDS011;11729;50.836;4.330;2023-12-07T02:55:08;36.40;;;20.85;;
23119;SDS011;11729;50.836;4.330;2023-12-07T02:57:34;34.42;;;20.75;;
23119;SDS011;11729;50.836;4.330;2023-12-07T03:00:00;33.83;;;21.45;;
23119;SDS011;11729;50.836;4.330;2023-12-07T03:02:33;35.78;;;22.23;;
23119;SDS011;11729;50.836;4.330;2023-12-07T03:05:03;36.50;;;20.88;;
23119;SDS011;11729;50.836;4.330;2023-12-07T03:07:30;37.83;;;22.25;;
23119;SDS011;11729;50.836;4.330;2023-12-07T03:09:56;35.90;;;21.50;;
23119;SDS011;11729;50.836;4.330;2023-12-07T03:12:22;37.92;;;21.13;;
23119;SDS011;11729;50.836;4.330;2023-12-07T03:14:50;33.92;;;22.08;;
23119;SDS011;11729;50.836;4.330;2023-12-07T03:17:16;32.53;;;20.95;;
23119;SDS011;11729;50.836;4.330;2023-12-07T03:19:42;36.00;;;21.88;;
23119;SDS011;11729;50.836;4.330;2023-12-07T03:22:07;37.28;;;22.13;;
23119;SDS011;11729;50.836;4.330;2023-12-07T03:24:36;42.85;;;23.35;;
23119;SDS011;11729;50.836;4.330;2023-12-07T03:27:03;34.00;;;22.10;;
23119;SDS011;11729;50.836;4.330;2023-12-07T03:29:30;31.15;;;22.40;;
23119;SDS011;11729;50.836;4.330;2023-12-07T03:31:56;31.38;;;20.58;;
23119;SDS011;11729;50.836;4.330;2023-12-07T03:34:24;35.45;;;22.65;;
23119;SDS011;11729;50.836;4.330;2023-12-07T03:36:49;34.72;;;20.88;;
23119;SDS011;11729;50.836;4.330;2023-12-07T03:39:16;29.35;;;20.45;;
23119;SDS011;11729;50.836;4.330;2023-12-07T03:41:47;30.05;;;20.40;;
23119;SDS011;11729;50.836;4.330;2023-12-07T03:44:13;33.97;;;20.65;;
23119;SDS011;11729;50.836;4.330;2023-12-07T03:46:39;28.80;;;19.88;;
23119;SDS011;11729;50.836;4.330;2023-12-07T03:49:05;35.75;;;20.67;;
23119;SDS011;11729;50.836;4.330;2023-12-07T03:51:30;26.90;;;19.52;;
23119;SDS011;11729;50.836;4.330;2023-12-07T03:53:56;31.90;;;20.55;;
23119;SDS011;11729;50.836;4.330;2023-12-07T03:56:23;27.10;;;20.40;;
23119;SDS011;11729;50.836;4.330;2023-12-07T03:58:52;32.30;;;20.58;;
23119;SDS011;11729;50.836;4.330;2023-12-07T04:01:17;34.53;;;20.10;;
23119;SDS011;11729;50.836;4.330;2023-12-07T04:03:48;28.77;;;20.42;;
23119;SDS011;11729;50.836;4.330;2023-12-07T04:06:14;34.78;;;20.70;;
23119;SDS011;11729;50.836;4.330;2023-12-07T04:08:40;30.02;;;20.80;;
23119;SDS011;11729;50.836;4.330;2023-12-07T04:11:05;33.95;;;21.08;;
23119;SDS011;11729;50.836;4.330;2023-12-07T04:13:31;30.25;;;21.13;;
23119;SDS011;11729;50.836;4.330;2023-12-07T04:15:57;28.13;;;19.75;;
23119;SDS011;11729;50.836;4.330;2023-12-07T04:18:22;29.45;;;20.30;;
23119;SDS011;11729;50.836;4.330;2023-12-07T04:20:48;30.88;;;21.38;;
23119;SDS011;11729;50.836;4.330;2023-12-07T04:23:14;33.67;;;21.50;;
23119;SDS011;11729;50.836;4.330;2023-12-07T04:25:39;33.42;;;20.33;;
23119;SDS011;11729;50.836;4.330;2023-12-07T04:28:05;34.80;;;21.77;;
23119;SDS011;11729;50.836;4.330;2023-12-07T04:30:31;29.00;;;20.70;;
23119;SDS011;11729;50.836;4.330;2023-12-07T04:32:56;31.75;;;19.73;;
23119;SDS011;11729;50.836;4.330;2023-12-07T04:35:22;31.95;;;20.60;;
23119;SDS011;11729;50.836;4.330;2023-12-07T04:37:47;30.48;;;20.15;;
23119;SDS011;11729;50.836;4.330;2023-12-07T04:40:13;29.02;;;18.33;;
23119;SDS011;11729;50.836;4.330;2023-12-07T04:42:39;27.25;;;19.10;;
23119;SDS011;11729;50.836;4.330;2023-12-07T04:45:05;28.92;;;19.70;;
23119;SDS011;11729;50.836;4.330;2023-12-07T04:47:31;24.65;;;18.88;;
23119;SDS011;11729;50.836;4.330;2023-12-07T04:49:58;28.95;;;19.20;;
23119;SDS011;11729;50.836;4.330;2023-12-07T04:52:24;28.27;;;19.92;;
23119;SDS011;11729;50.836;4.330;2023-12-07T04:54:49;28.08;;;19.33;;
23119;SDS011;11729;50.836;4.330;2023-12-07T04:57:15;28.33;;;20.08;;
23119;SDS011;11729;50.836;4.330;2023-12-07T04:59:41;28.77;;;17.92;;
23119;SDS011;11729;50.836;4.330;2023-12-07T05:02:12;27.35;;;19.80;;
23119;SDS011;11729;50.836;4.330;2023-12-07T05:04:38;30.27;;;20.17;;
23119;SDS011;11729;50.836;4.330;2023-12-07T05:07:04;29.20;;;18.33;;
23119;SDS011;11729;50.836;4.330;2023-12-07T05:09:30;27.08;;;19.90;;
23119;SDS011;11729;50.836;4.330;2023-12-07T05:11:56;27.95;;;18.70;;
23119;SDS011;11729;50.836;4.330;2023-12-07T05:14:22;27.50;;;17.67;;
23119;SDS011;11729;50.836;4.330;2023-12-07T05:16:48;34.92;;;19.23;;
23119;SDS011;11729;50.836;4.330;2023-12-07T05:19:18;31.88;;;20.50;;
23119;SDS011;11729;50.836;4.330;2023-12-07T05:21:45;26.50;;;19.30;;
23119;SDS011;11729;50.836;4.330;2023-12-07T05:24:12;28.23;;;19.80;;
23119;SDS011;11729;50.836;4.330;2023-12-07T05:26:38;27.05;;;19.00;;
23119;SDS011;11729;50.836;4.330;2023-12-07T05:29:05;32.97;;;19.83;;
23119;SDS011;11729;50.836;4.330;2023-12-07T05:31:31;27.58;;;18.23;;
23119;SDS011;11729;50.836;4.330;2023-12-07T05:33:56;29.80;;;19.00;;
23119;SDS011;11729;50.836;4.330;2023-12-07T05:36:22;27.77;;;18.23;;
23119;SDS011;11729;50.836;4.330;2023-12-07T05:38:48;28.20;;;19.20;;
23119;SDS011;11729;50.836;4.330;2023-12-07T05:41:14;28.50;;;19.25;;
23119;SDS011;11729;50.836;4.330;2023-12-07T05:43:40;27.35;;;18.80;;
23119;SDS011;11729;50.836;4.330;2023-12-07T05:46:09;24.95;;;18.60;;
23119;SDS011;11729;50.836;4.330;2023-12-07T05:48:35;31.30;;;19.27;;
23119;SDS011;11729;50.836;4.330;2023-12-07T05:51:04;28.17;;;19.40;;
23119;SDS011;11729;50.836;4.330;2023-12-07T05:53:30;27.25;;;18.10;;
23119;SDS011;11729;50.836;4.330;2023-12-07T05:55:58;34.53;;;18.63;;
23119;SDS011;11729;50.836;4.330;2023-12-07T05:58:24;25.50;;;16.77;;
23119;SDS011;11729;50.836;4.330;2023-12-07T06:00:51;29.60;;;19.13;;
23119;SDS011;11729;50.836;4.330;2023-12-07T06:03:17;26.70;;;17.80;;
23119;SDS011;11729;50.836;4.330;2023-12-07T06:05:43;25.80;;;18.70;;
23119;SDS011;11729;50.836;4.330;2023-12-07T06:08:10;22.83;;;17.83;;
23119;SDS011;11729;50.836;4.330;2023-12-07T06:10:35;26.92;;;19.00;;
23119;SDS011;11729;50.836;4.330;2023-12-07T06:13:02;34.83;;;18.67;;
23119;SDS011;11729;50.836;4.330;2023-12-07T06:15:28;26.73;;;18.98;;
23119;SDS011;11729;50.836;4.330;2023-12-07T06:17:54;27.88;;;19.17;;
23119;SDS011;11729;50.836;4.330;2023-12-07T06:20:19;31.35;;;19.42;;
23119;SDS011;11729;50.836;4.330;2023-12-07T06:22:45;30.10;;;19.17;;
23119;SDS011;11729;50.836;4.330;2023-12-07T06:25:11;26.65;;;18.40;;
23119;SDS011;11729;50.836;4.330;2023-12-07T06:27:37;27.48;;;17.90;;
23119;SDS011;11729;50.836;4.330;2023-12-07T06:30:04;29.70;;;18.27;;
23119;SDS011;11729;50.836;4.330;2023-12-07T06:32:33;21.80;;;16.55;;
23119;SDS011;11729;50.836;4.330;2023-12-07T06:35:00;32.08;;;18.63;;
23119;SDS011;11729;50.836;4.330;2023-12-07T06:37:26;23.80;;;17.08;;
23119;SDS011;11729;50.836;4.330;2023-12-07T06:39:53;29.70;;;18.20;;
23119;SDS011;11729;50.836;4.330;2023-12-07T06:42:18;27.38;;;18.73;;
23119;SDS011;11729;50.836;4.330;2023-12-07T06:44:47;25.67;;;17.70;;
23119;SDS011;11729;50.836;4.330;2023-12-07T06:47:16;27.35;;;17.52;;
23119;SDS011;11729;50.836;4.330;2023-12-07T06:49:42;24.50;;;18.13;;
23119;SDS011;11729;50.836;4.330;2023-12-07T06:52:07;30.38;;;17.88;;
23119;SDS011;11729;50.836;4.330;2023-12-07T06:54:34;29.25;;;18.65;;
23119;SDS011;11729;50.836;4.330;2023-12-07T06:56:59;24.65;;;18.02;;
23119;SDS011;11729;50.836;4.330;2023-12-07T06:59:25;26.50;;;17.73;;
23119;SDS011;11729;50.836;4.330;2023-12-07T07:01:51;28.45;;;17.98;;
23119;SDS011;11729;50.836;4.330;2023-12-07T07:04:16;28.45;;;17.63;;
23119;SDS011;11729;50.836;4.330;2023-12-07T07:06:42;27.80;;;18.38;;
23119;SDS011;11729;50.836;4.330;2023-12-07T07:09:09;30.33;;;18.40;;
23119;SDS011;11729;50.836;4.330;2023-12-07T07:11:34;28.67;;;18.30;;
23119;SDS011;11729;50.836;4.330;2023-12-07T07:14:02;28.92;;;18.17;;
23119;SDS011;11729;50.836;4.330;2023-12-07T07:16:27;31.10;;;17.60;;
23119;SDS011;11729;50.836;4.330;2023-12-07T07:18:54;30.15;;;18.42;;
23119;SDS011;11729;50.836;4.330;2023-12-07T07:21:20;32.72;;;18.27;;
23119;SDS011;11729;50.836;4.330;2023-12-07T07:23:45;45.67;;;26.42;;
23119;SDS011;11729;50.836;4.330;2023-12-07T07:26:12;31.63;;;18.38;;
23119;SDS011;11729;50.836;4.330;2023-12-07T07:28:42;24.00;;;17.25;;
23119;SDS011;11729;50.836;4.330;2023-12-07T07:31:09;30.55;;;17.75;;
23119;SDS011;11729;50.836;4.330;2023-12-07T07:33:35;23.85;;;17.30;;
23119;SDS011;11729;50.836;4.330;2023-12-07T07:36:00;27.63;;;18.35;;
23119;SDS011;11729;50.836;4.330;2023-12-07T07:38:26;29.17;;;17.02;;
23119;SDS011;11729;50.836;4.330;2023-12-07T07:40:52;30.95;;;17.58;;
23119;SDS011;11729;50.836;4.330;2023-12-07T07:43:17;29.02;;;17.40;;
23119;SDS011;11729;50.836;4.330;2023-12-07T07:45:43;32.40;;;17.85;;
23119;SDS011;11729;50.836;4.330;2023-12-07T07:48:09;35.72;;;18.85;;
23119;SDS011;11729;50.836;4.330;2023-12-07T07:50:35;27.85;;;17.40;;
23119;SDS011;11729;50.836;4.330;2023-12-07T07:53:01;24.65;;;17.33;;
23119;SDS011;11729;50.836;4.330;2023-12-07T07:55:29;32.17;;;18.02;;
23119;SDS011;11729;50.836;4.330;2023-12-07T07:57:56;26.40;;;18.20;;
23119;SDS011;11729;50.836;4.330;2023-12-07T08:00:21;32.22;;;17.63;;
23119;SDS011;11729;50.836;4.330;2023-12-07T08:02:49;26.43;;;18.03;;
23119;SDS011;11729;50.836;4.330;2023-12-07T08:05:15;28.52;;;16.88;;
23119;SDS011;11729;50.836;4.330;2023-12-07T08:07:40;26.90;;;17.63;;
23119;SDS011;11729;50.836;4.330;2023-12-07T08:10:07;29.52;;;17.52;;
23119;SDS011;11729;50.836;4.330;2023-12-07T08:12:34;28.65;;;17.38;;
23119;SDS011;11729;50.836;4.330;2023-12-07T08:15:00;32.33;;;16.92;;
23119;SDS011;11729;50.836;4.330;2023-12-07T08:17:27;33.38;;;17.20;;
23119;SDS011;11729;50.836;4.330;2023-12-07T08:19:55;38.28;;;18.48;;
23119;SDS011;11729;50.836;4.330;2023-12-07T08:22:22;27.55;;;17.67;;
23119;SDS011;11729;50.836;4.330;2023-12-07T08:24:47;24.77;;;16.52;;
23119;SDS011;11729;50.836;4.330;2023-12-07T08:27:14;29.23;;;16.73;;
23119;SDS011;11729;50.836;4.330;2023-12-07T08:29:40;20.13;;;15.73;;
23119;SDS011;11729;50.836;4.330;2023-12-07T08:32:05;26.55;;;16.95;;
23119;SDS011;11729;50.836;4.330;2023-12-07T08:34:31;23.90;;;16.02;;
23119;SDS011;11729;50.836;4.330;2023-12-07T08:36:57;24.02;;;15.52;;
23119;SDS011;11729;50.836;4.330;2023-12-07T08:39:22;26.02;;;15.95;;
23119;SDS011;11729;50.836;4.330;2023-12-07T08:41:49;24.05;;;15.40;;
23119;SDS011;11729;50.836;4.330;2023-12-07T08:44:15;22.73;;;15.20;;
23119;SDS011;11729;50.836;4.330;2023-12-07T08:46:40;22.48;;;14.00;;
23119;SDS011;11729;50.836;4.330;2023-12-07T08:49:08;22.17;;;15.27;;
23119;SDS011;11729;50.836;4.330;2023-12-07T08:51:34;20.73;;;14.32;;
23119;SDS011;11729;50.836;4.330;2023-12-07T08:54:00;23.20;;;15.07;;
23119;SDS011;11729;50.836;4.330;2023-12-07T08:56:26;24.50;;;14.70;;
23119;SDS011;11729;50.836;4.330;2023-12-07T08:58:52;22.70;;;15.35;;
23119;SDS011;11729;50.836;4.330;2023-12-07T09:01:17;27.77;;;15.20;;
23119;SDS011;11729;50.836;4.330;2023-12-07T09:03:43;18.83;;;14.93;;
23119;SDS011;11729;50.836;4.330;2023-12-07T09:06:09;24.35;;;15.13;;
23119;SDS011;11729;50.836;4.330;2023-12-07T09:08:34;20.48;;;14.75;;
23119;SDS011;11729;50.836;4.330;2023-12-07T09:11:00;21.42;;;13.82;;
23119;SDS011;11729;50.836;4.330;2023-12-07T09:13:26;24.60;;;15.02;;
23119;SDS011;11729;50.836;4.330;2023-12-07T09:15:53;19.05;;;14.35;;
23119;SDS011;11729;50.836;4.330;2023-12-07T09:18:19;25.55;;;15.88;;
23119;SDS011;11729;50.836;4.330;2023-12-07T09:20:45;36.75;;;19.33;;
23119;SDS011;11729;50.836;4.330;2023-12-07T09:23:14;24.35;;;15.45;;
23119;SDS011;11729;50.836;4.330;2023-12-07T09:25:42;17.33;;;14.35;;
23119;SDS011;11729;50.836;4.330;2023-12-07T09:28:08;16.08;;;14.00;;
23119;SDS011;11729;50.836;4.330;2023-12-07T09:30:34;16.58;;;13.85;;
23119;SDS011;11729;50.836;4.330;2023-12-07T09:33:00;19.13;;;14.75;;
23119;SDS011;11729;50.836;4.330;2023-12-07T09:35:29;23.20;;;14.43;;
23119;SDS011;11729;50.836;4.330;2023-12-07T09:37:54;18.77;;;13.82;;
23119;SDS011;11729;50.836;4.330;2023-12-07T09:40:21;19.95;;;13.05;;
23119;SDS011;11729;50.836;4.330;2023-12-07T09:42:48;19.73;;;13.32;;
23119;SDS011;11729;50.836;4.330;2023-12-07T09:45:15;20.67;;;14.60;;
23119;SDS011;11729;50.836;4.330;2023-12-07T09:47:48;24.45;;;14.32;;
23119;SDS011;11729;50.836;4.330;2023-12-07T09:50:19;24.70;;;12.57;;
23119;SDS011;11729;50.836;4.330;2023-12-07T09:52:49;18.60;;;13.80;;
23119;SDS011;11729;50.836;4.330;2023-12-07T09:55:17;25.90;;;13.63;;
23119;SDS011;11729;50.836;4.330;2023-12-07T09:57:43;26.23;;;13.50;;
23119;SDS011;11729;50.836;4.330;2023-12-07T10:00:11;19.10;;;13.43;;
23119;SDS011;11729;50.836;4.330;2023-12-07T10:05:10;18.05;;;13.48;;
23119;SDS011;11729;50.836;4.330;2023-12-07T10:07:48;19.08;;;13.40;;
23119;SDS011;11729;50.836;4.330;2023-12-07T10:10:15;15.52;;;12.45;;
23119;SDS011;11729;50.836;4.330;2023-12-07T10:12:50;20.27;;;12.55;;
23119;SDS011;11729;50.836;4.330;2023-12-07T10:15:24;15.65;;;13.15;;
23119;SDS011;11729;50.836;4.330;2023-12-07T10:20:24;17.40;;;12.15;;
23119;SDS011;11729;50.836;4.330;2023-12-07T10:25:29;18.25;;;12.48;;
23119;SDS011;11729;50.836;4.330;2023-12-07T10:28:02;17.67;;;11.95;;
23119;SDS011;11729;50.836;4.330;2023-12-07T10:30:31;17.83;;;11.85;;
23119;SDS011;11729;50.836;4.330;2023-12-07T10:32:57;17.38;;;12.63;;
23119;SDS011;11729;50.836;4.330;2023-12-07T10:35:23;19.17;;;12.07;;
23119;SDS011;11729;50.836;4.330;2023-12-07T10:37:49;18.65;;;11.77;;
23119;SDS011;11729;50.836;4.330;2023-12-07T10:40:14;16.23;;;11.10;;
23119;SDS011;11729;50.836;4.330;2023-12-07T10:42:41;16.27;;;11.23;;
23119;SDS011;11729;50.836;4.330;2023-12-07T10:45:07;14.75;;;11.38;;
23119;SDS011;11729;50.836;4.330;2023-12-07T10:47:38;21.27;;;11.82;;
23119;SDS011;11729;50.836;4.330;2023-12-07T10:50:07;16.80;;;11.25;;
23119;SDS011;11729;50.836;4.330;2023-12-07T10:52:36;13.23;;;11.63;;
23119;SDS011;11729;50.836;4.330;2023-12-07T10:55:07;20.67;;;12.10;;
23119;SDS011;11729;50.836;4.330;2023-12-07T10:57:40;19.73;;;13.82;;
23119;SDS011;11729;50.836;4.330;2023-12-07T11:00:07;16.63;;;12.02;;
23119;SDS011;11729;50.836;4.330;2023-12-07T11:02:35;21.95;;;11.60;;
23119;SDS011;11729;50.836;4.330;2023-12-07T11:05:03;14.65;;;10.65;;
23119;SDS011;11729;50.836;4.330;2023-12-07T11:07:42;15.43;;;10.68;;
23119;SDS011;11729;50.836;4.330;2023-12-07T11:10:15;13.88;;;10.75;;
23119;SDS011;11729;50.836;4.330;2023-12-07T11:12:56;12.43;;;10.10;;
23119;SDS011;11729;50.836;4.330;2023-12-07T11:15:36;12.35;;;10.10;;
23119;SDS011;11729;50.836;4.330;2023-12-07T11:18:02;11.30;;;10.02;;
23119;SDS011;11729;50.836;4.330;2023-12-07T11:20:40;14.18;;;10.35;;
23119;SDS011;11729;50.836;4.330;2023-12-07T11:23:07;12.38;;;9.77;;
23119;SDS011;11729;50.836;4.330;2023-12-07T11:25:33;12.18;;;9.45;;
23119;SDS011;11729;50.836;4.330;2023-12-07T11:28:00;13.32;;;9.88;;
23119;SDS011;11729;50.836;4.330;2023-12-07T11:30:29;12.05;;;9.07;;
23119;SDS011;11729;50.836;4.330;2023-12-07T11:32:58;16.08;;;9.80;;
23119;SDS011;11729;50.836;4.330;2023-12-07T11:35:24;12.00;;;10.38;;
23119;SDS011;11729;50.836;4.330;2023-12-07T11:38:07;15.15;;;9.98;;
23119;SDS011;11729;50.836;4.330;2023-12-07T11:40:35;13.07;;;10.32;;
23119;SDS011;11729;50.836;4.330;2023-12-07T11:43:04;18.67;;;10.05;;
23119;SDS011;11729;50.836;4.330;2023-12-07T11:45:40;13.13;;;9.32;;
23119;SDS011;11729;50.836;4.330;2023-12-07T11:48:16;12.25;;;9.55;;
23119;SDS011;11729;50.836;4.330;2023-12-07T11:53:23;12.60;;;8.82;;
23119;SDS011;11729;50.836;4.330;2023-12-07T11:55:50;11.40;;;9.00;;
23119;SDS011;11729;50.836;4.330;2023-12-07T11:58:16;10.23;;;9.20;;
23119;SDS011;11729;50.836;4.330;2023-12-07T12:00:43;12.27;;;9.63;;
23119;SDS011;11729;50.836;4.330;2023-12-07T12:03:11;16.85;;;9.43;;
23119;SDS011;11729;50.836;4.330;2023-12-07T12:05:38;12.48;;;10.18;;
23119;SDS011;11729;50.836;4.330;2023-12-07T12:08:05;13.82;;;10.10;;
23119;SDS011;11729;50.836;4.330;2023-12-07T12:10:32;13.27;;;9.90;;
23119;SDS011;11729;50.836;4.330;2023-12-07T12:13:01;16.75;;;10.18;;
23119;SDS011;11729;50.836;4.330;2023-12-07T12:15:28;11.60;;;9.10;;
23119;SDS011;11729;50.836;4.330;2023-12-07T12:17:55;11.88;;;9.70;;
23119;SDS011;11729;50.836;4.330;2023-12-07T12:20:21;12.73;;;9.88;;
23119;SDS011;11729;50.836;4.330;2023-12-07T12:22:50;16.48;;;11.05;;
23119;SDS011;11729;50.836;4.330;2023-12-07T12:25:19;11.23;;;9.30;;
23119;SDS011;11729;50.836;4.330;2023-12-07T12:27:51;12.48;;;9.48;;
23119;SDS011;11729;50.836;4.330;2023-12-07T12:30:18;12.38;;;9.52;;
23119;SDS011;11729;50.836;4.330;2023-12-07T12:32:45;14.70;;;9.70;;
23119;SDS011;11729;50.836;4.330;2023-12-07T12:35:11;10.95;;;9.85;;
23119;SDS011;11729;50.836;4.330;2023-12-07T12:37:39;11.63;;;9.20;;
23119;SDS011;11729;50.836;4.330;2023-12-07T12:40:10;11.13;;;9.77;;
23119;SDS011;11729;50.836;4.330;2023-12-07T12:42:36;10.73;;;9.60;;
23119;SDS011;11729;50.836;4.330;2023-12-07T12:45:07;10.85;;;9.77;;
23119;SDS011;11729;50.836;4.330;2023-12-07T12:47:34;13.57;;;9.35;;
23119;SDS011;11729;50.836;4.330;2023-12-07T12:50:02;13.73;;;10.20;;
23119;SDS011;11729;50.836;4.330;2023-12-07T12:52:31;9.77;;;8.77;;
23119;SDS011;11729;50.836;4.330;2023-12-07T12:54:57;13.88;;;9.70;;
23119;SDS011;11729;50.836;4.330;2023-12-07T12:57:23;13.63;;;9.52;;
23119;SDS011;11729;50.836;4.330;2023-12-07T12:59:51;10.57;;;9.48;;
23119;SDS011;11729;50.836;4.330;2023-12-07T13:02:18;13.25;;;10.10;;
23119;SDS011;11729;50.836;4.330;2023-12-07T13:04:46;12.18;;;8.88;;
23119;SDS011;11729;50.836;4.330;2023-12-07T13:07:12;13.38;;;9.43;;
23119;SDS011;11729;50.836;4.330;2023-12-07T13:09:41;9.90;;;8.93;;
23119;SDS011;11729;50.836;4.330;2023-12-07T13:12:08;9.90;;;8.63;;
23119;SDS011;11729;50.836;4.330;2023-12-07T13:14:34;10.57;;;9.48;;
23119;SDS011;11729;50.836;4.330;2023-12-07T13:17:00;10.82;;;9.10;;
23119;SDS011;11729;50.836;4.330;2023-12-07T13:19:27;12.85;;;9.25;;
23119;SDS011;11729;50.836;4.330;2023-12-07T13:21:52;12.07;;;9.82;;
23119;SDS011;11729;50.836;4.330;2023-12-07T13:24:18;11.15;;;9.20;;
23119;SDS011;11729;50.836;4.330;2023-12-07T13:26:44;10.80;;;9.20;;
23119;SDS011;11729;50.836;4.330;2023-12-07T13:29:09;20.58;;;9.25;;
23119;SDS011;11729;50.836;4.330;2023-12-07T13:31:35;14.77;;;9.15;;
23119;SDS011;11729;50.836;4.330;2023-12-07T13:34:02;12.02;;;8.70;;
23119;SDS011;11729;50.836;4.330;2023-12-07T13:36:27;10.80;;;8.80;;
23119;SDS011;11729;50.836;4.330;2023-12-07T13:38:58;11.98;;;9.20;;
23119;SDS011;11729;50.836;4.330;2023-12-07T13:41:24;11.93;;;9.35;;
23119;SDS011;11729;50.836;4.330;2023-12-07T13:43:49;11.70;;;9.30;;
23119;SDS011;11729;50.836;4.330;2023-12-07T13:46:16;16.52;;;9.15;;
23119;SDS011;11729;50.836;4.330;2023-12-07T13:48:42;14.48;;;9.57;;
23119;SDS011;11729;50.836;4.330;2023-12-07T13:51:08;10.10;;;9.10;;
23119;SDS011;11729;50.836;4.330;2023-12-07T13:53:34;14.35;;;8.95;;
23119;SDS011;11729;50.836;4.330;2023-12-07T13:56:00;11.75;;;8.57;;
23119;SDS011;11729;50.836;4.330;2023-12-07T13:58:26;15.25;;;9.93;;
23119;SDS011;11729;50.836;4.330;2023-12-07T14:00:51;12.00;;;8.77;;
23119;SDS011;11729;50.836;4.330;2023-12-07T14:03:17;13.68;;;9.80;;
23119;SDS011;11729;50.836;4.330;2023-12-07T14:05:43;15.50;;;9.80;;
23119;SDS011;11729;50.836;4.330;2023-12-07T14:08:08;11.25;;;9.13;;
23119;SDS011;11729;50.836;4.330;2023-12-07T14:10:34;10.45;;;9.45;;
23119;SDS011;11729;50.836;4.330;2023-12-07T14:13:00;10.32;;;9.32;;
23119;SDS011;11729;50.836;4.330;2023-12-07T14:15:26;10.88;;;9.23;;
23119;SDS011;11729;50.836;4.330;2023-12-07T14:17:52;11.18;;;9.57;;
23119;SDS011;11729;50.836;4.330;2023-12-07T14:20:17;15.38;;;9.55;;
23119;SDS011;11729;50.836;4.330;2023-12-07T14:22:46;20.25;;;10.30;;
23119;SDS011;11729;50.836;4.330;2023-12-07T14:25:14;11.90;;;10.02;;
23119;SDS011;11729;50.836;4.330;2023-12-07T14:27:41;12.85;;;9.50;;
23119;SDS011;11729;50.836;4.330;2023-12-07T14:30:06;11.32;;;10.07;;
23119;SDS011;11729;50.836;4.330;2023-12-07T14:32:35;15.15;;;10.20;;
23119;SDS011;11729;50.836;4.330;2023-12-07T14:35:00;13.95;;;9.48;;